Rock Valley, Iowa
Current Conditions -  °F | °C
As of 8:35 PM on Sunday 21 Dec 2014 (Local Time) from KORC Reporting Station
Haze Haze  
Wind Chill: 32°   Ceiling: 500
Heat Index: 39°   Visibility: 2mi
Dew Point: 37°   Wind: 12mph
Humidity: 93%   Direction: 160°SSE
Pressure: 29.62"   Gusts: NA
Location:  43.21°N, 96.3°W
Report Text: KORC 220235Z AUTO 16010KT 2SM BR OVC005 04/03 A2962 RMK AO2
Loading
Personal Weather Stations






























Interactive Weather Map New forecast layout! Learn more

10-Day Weather Forecast

Advertisements
Track Severe Weather on mobile